الصفحة الرئيسية
METAR-TAF:

METAR-TAF

مطار :

باغوسا سبرينغز, كولورادو, الولايات المتحدة

دائرة عرض: 37-17-17N, خط طول: 107-03-18W, ارتفاع: 2334 متر

مراقبة الطقس الحالي

تاريخ ووقت الإصدار 21 دقيقة قبل الساعة 02:35UTC
رياح هادئة
درجة الحرارة 1°درجة مئوية
الرطوبة 100%
ضغط 1025 hPa
الرؤية: 11.3 كم
غيوم متفرقة على ارتفاع 300 قدم
غيوم مفككة على ارتفاع 800 قدم
ملبد بالغيوم على ارتفاع 1800 قدم

METAR: KPSO 060235Z AUTO 00000KT 7SM SCT003 BKN008 OVC018 01/01 A3027 RMK AO2 T00140014

زمن: 19:56 (02:56 UTC)


TAF: مفقودة

أرصاد الطقس والتوقعات من أكثر من 4000 مطار (تقارير الطقس للمطار METAR والتنبؤ بالطقس بالمطارTAF).

المحطات المتاحة هي النقط الصفراء والحمراء على الخريطة.

حرك المؤشر فوق النقطة لمعرفة اسم المحطة.

ثم انقر لمعرفة أرصاد وتوقعات الطقس.

لتغيير الخارطة: اضغط على الأزرار الخضراء مع رمز الصليب الأسود للتكبير. على الزر الأخضر مع شرطة للتصغير، أو على الأسهم الخضراء للخرائط المجاورة.


METAR-TAF: